Time;durP1;ratioP1;P1;durP2;ratioP2;P2;SDS_P1;SDS_P2;PMS_P1;PMS_P2;Temp;Humidity;BMP_temperature;BMP_pressure;BME280_temperature;BME280_humidity;BME280_pressure;Samples;Min_cycle;Max_cycle;Signal;HPM_P1;HPM_P2
2023/04/26 00:01:30;;;;;;;5.40;0.43;;;2.60;99.90;;;;;;4993586;28;20118;-50
2023/04/26 00:03:56;;;;;;;0.53;0.27;;;2.40;99.90;;;;;;4992845;28;20030;-49
2023/04/26 00:06:22;;;;;;;0.40;0.30;;;2.30;99.90;;;;;;4993360;28;20619;-54
2023/04/26 00:08:47;;;;;;;0.50;0.40;;;2.30;99.90;;;;;;4992018;28;20133;-53
2023/04/26 00:11:13;;;;;;;1.17;0.57;;;2.20;99.90;;;;;;4993207;28;20026;-50
2023/04/26 00:13:39;;;;;;;0.80;0.30;;;2.20;99.90;;;;;;4992915;28;20034;-52
2023/04/26 00:16:05;;;;;;;0.40;0.30;;;2.10;99.90;;;;;;4993746;28;20771;-49
2023/04/26 00:18:31;;;;;;;0.83;0.70;;;2.20;99.90;;;;;;4993083;28;20112;-53
2023/04/26 00:20:57;;;;;;;1.90;0.47;;;2.10;99.90;;;;;;4990928;28;20113;-53
2023/04/26 00:23:23;;;;;;;0.33;0.33;;;2.10;99.90;;;;;;4990908;28;20038;-51
2023/04/26 00:25:48;;;;;;;0.37;0.30;;;2.00;99.90;;;;;;4990705;28;20022;-50
2023/04/26 00:28:14;;;;;;;0.90;0.70;;;2.00;99.90;;;;;;4992979;28;20132;-50
2023/04/26 00:30:46;;;;;;;1.43;0.53;;;2.00;99.90;;;;;;4991014;28;20121;-52
2023/04/26 00:33:12;;;;;;;2.00;0.90;;;2.00;99.90;;;;;;4992363;28;20081;-53
2023/04/26 00:35:38;;;;;;;2.47;1.03;;;2.10;99.90;;;;;;4991086;28;20034;-51
2023/04/26 00:38:03;;;;;;;0.83;0.53;;;2.10;99.90;;;;;;4992710;28;20050;-55
2023/04/26 00:40:30;;;;;;;0.53;0.53;;;2.00;99.90;;;;;;4991425;28;20066;-51
2023/04/26 00:42:56;;;;;;;0.93;0.40;;;1.90;99.90;;;;;;4992971;28;20022;-53
2023/04/26 00:45:22;;;;;;;1.07;0.47;;;1.80;99.90;;;;;;4991035;28;20066;-52
2023/04/26 00:47:48;;;;;;;0.93;0.33;;;1.70;99.90;;;;;;4991217;28;20073;-50
2023/04/26 00:50:15;;;;;;;0.73;0.33;;;1.70;99.90;;;;;;4992378;28;20057;-51
2023/04/26 00:52:40;;;;;;;0.67;0.63;;;1.60;99.90;;;;;;4992519;28;20058;-53
2023/04/26 00:55:07;;;;;;;0.90;0.37;;;1.50;99.90;;;;;;4990675;28;20455;-51
2023/04/26 00:57:32;;;;;;;0.87;0.63;;;1.40;99.90;;;;;;4991824;28;20026;-52
2023/04/26 00:59:58;;;;;;;1.03;0.43;;;1.40;99.90;;;;;;4991679;28;20520;-50
2023/04/26 01:02:25;;;;;;;4.80;0.83;;;1.50;99.90;;;;;;4992330;28;20046;-51
2023/04/26 01:04:51;;;;;;;0.80;0.50;;;1.60;99.90;;;;;;4991906;28;20031;-54
2023/04/26 01:07:17;;;;;;;2.60;0.87;;;1.60;99.90;;;;;;4992086;28;20523;-53
2023/04/26 01:09:43;;;;;;;0.30;0.20;;;1.60;99.90;;;;;;4991012;28;20102;-53
2023/04/26 01:12:10;;;;;;;0.60;0.47;;;1.60;99.90;;;;;;4990752;28;20084;-55
2023/04/26 01:14:39;;;;;;;2.97;0.93;;;1.50;99.90;;;;;;4991725;28;20391;-54
2023/04/26 01:17:05;;;;;;;0.73;0.53;;;1.40;99.90;;;;;;4991747;28;20035;-56
2023/04/26 01:19:31;;;;;;;0.83;0.57;;;1.40;99.90;;;;;;4990277;28;20061;-53
2023/04/26 01:21:57;;;;;;;0.73;0.30;;;1.40;99.90;;;;;;4990368;28;20387;-51
2023/04/26 01:24:23;;;;;;;0.50;0.50;;;1.30;99.90;;;;;;4990618;28;20030;-53
2023/04/26 01:26:48;;;;;;;0.60;0.40;;;1.30;99.90;;;;;;4991910;28;20034;-50
2023/04/26 01:29:15;;;;;;;1.07;0.60;;;1.20;99.90;;;;;;4990372;28;20061;-54
2023/04/26 01:31:42;;;;;;;1.57;0.60;;;1.20;99.90;;;;;;4992059;28;20492;-54
2023/04/26 01:34:07;;;;;;;0.70;0.40;;;1.20;99.90;;;;;;4991418;28;20368;-54
2023/04/26 01:36:33;;;;;;;0.20;0.20;;;1.10;99.90;;;;;;4990198;28;20081;-54
2023/04/26 01:38:59;;;;;;;0.43;0.43;;;1.10;99.90;;;;;;4990538;28;20069;-53
2023/04/26 01:41:25;;;;;;;0.77;0.53;;;1.10;99.90;;;;;;5005275;22;20047;-46
2023/04/26 01:43:51;;;;;;;0.60;0.43;;;1.10;99.90;;;;;;4990471;28;20030;-48
2023/04/26 01:46:17;;;;;;;1.03;0.50;;;1.10;99.90;;;;;;4973430;28;20446;-46
2023/04/26 01:48:43;;;;;;;0.20;0.20;;;1.00;99.90;;;;;;4990593;28;20448;-48
2023/04/26 01:51:09;;;;;;;0.67;0.23;;;1.00;99.90;;;;;;4973618;28;20076;-46
2023/04/26 01:53:35;;;;;;;0.87;0.50;;;0.90;99.90;;;;;;4989427;28;20053;-49
2023/04/26 01:56:04;;;;;;;0.57;0.30;;;0.90;99.90;;;;;;4991107;28;20398;-46
2023/04/26 01:58:30;;;;;;;1.50;0.63;;;0.90;99.90;;;;;;4990684;28;20042;-47
2023/04/26 02:01:03;;;;;;;0.13;0.13;;;0.90;99.90;;;;;;4973646;28;20141;-47
2023/04/26 02:03:29;;;;;;;0.83;0.57;;;1.00;99.90;;;;;;4990300;28;20031;-46
2023/04/26 02:05:55;;;;;;;1.97;0.73;;;1.10;99.90;;;;;;4973324;28;20026;-47
2023/04/26 02:08:20;;;;;;;0.60;0.60;;;1.10;99.90;;;;;;4989777;28;20034;-47
2023/04/26 02:10:46;;;;;;;0.53;0.40;;;1.20;99.90;;;;;;4972126;28;20109;-47
2023/04/26 02:13:12;;;;;;;0.70;0.40;;;1.10;99.90;;;;;;4990573;28;20027;-46
2023/04/26 02:15:38;;;;;;;1.83;0.80;;;1.00;99.90;;;;;;4972685;28;20038;-46
2023/04/26 02:18:04;;;;;;;2.27;0.53;;;1.00;99.90;;;;;;4972760;28;20037;-47
2023/04/26 02:20:30;;;;;;;1.17;0.97;;;1.10;99.90;;;;;;4990126;28;20026;-47
2023/04/26 02:22:55;;;;;;;0.87;0.50;;;1.10;99.90;;;;;;4973096;28;20177;-46
2023/04/26 02:25:21;;;;;;;0.80;0.60;;;1.10;99.90;;;;;;4971329;28;20431;-46
2023/04/26 02:27:47;;;;;;;1.27;1.00;;;1.20;99.90;;;;;;4990384;28;20026;-46
2023/04/26 02:30:12;;;;;;;0.30;0.30;;;1.10;99.90;;;;;;4990102;28;20034;-48
2023/04/26 02:32:39;;;;;;;0.90;0.77;;;1.10;99.90;;;;;;4972995;28;20088;-46
2023/04/26 02:35:05;;;;;;;0.67;0.30;;;1.00;99.90;;;;;;4989930;28;20026;-46
2023/04/26 02:37:32;;;;;;;0.50;0.50;;;0.90;99.90;;;;;;4972715;28;20070;-46
2023/04/26 02:39:58;;;;;;;0.90;0.50;;;0.80;99.90;;;;;;4971398;28;20030;-46
2023/04/26 02:42:24;;;;;;;1.13;0.73;;;0.80;99.90;;;;;;4990164;28;20041;-47
2023/04/26 02:44:50;;;;;;;2.33;0.63;;;0.80;99.90;;;;;;4990016;28;20455;-48
2023/04/26 02:47:16;;;;;;;0.20;0.20;;;0.80;99.90;;;;;;4972143;28;20061;-46
2023/04/26 02:49:42;;;;;;;1.53;0.83;;;0.90;99.90;;;;;;4972224;28;20030;-46
2023/04/26 02:52:08;;;;;;;0.53;0.40;;;0.80;99.90;;;;;;4972397;28;20487;-46
2023/04/26 02:54:34;;;;;;;0.53;0.40;;;0.80;99.90;;;;;;4971133;28;20060;-46
2023/04/26 02:57:00;;;;;;;0.60;0.60;;;0.80;99.90;;;;;;4972530;28;20114;-49
2023/04/26 02:59:26;;;;;;;2.13;0.57;;;0.80;99.90;;;;;;4971985;28;20100;-47
2023/04/26 03:01:52;;;;;;;0.70;0.60;;;0.80;99.90;;;;;;4972376;28;20034;-47
2023/04/26 03:04:18;;;;;;;1.33;0.20;;;0.80;99.90;;;;;;4971994;28;20339;-46
2023/04/26 03:06:44;;;;;;;0.63;0.40;;;0.70;99.90;;;;;;4972427;28;20412;-45
2023/04/26 03:09:10;;;;;;;0.90;0.50;;;0.70;99.90;;;;;;4988656;28;20082;-46
2023/04/26 03:11:35;;;;;;;1.30;0.87;;;0.70;99.90;;;;;;4971591;28;20033;-46
2023/04/26 03:14:01;;;;;;;2.70;1.40;;;0.70;99.90;;;;;;4970448;28;20198;-46
2023/04/26 03:16:28;;;;;;;1.00;0.57;;;0.70;99.90;;;;;;4971918;28;20700;-45
2023/04/26 03:18:54;;;;;;;1.90;0.90;;;0.70;99.90;;;;;;4972504;28;20027;-46
2023/04/26 03:21:20;;;;;;;0.60;0.47;;;0.70;99.90;;;;;;4976524;28;20073;-45
2023/04/26 03:23:46;;;;;;;1.60;0.57;;;0.70;99.90;;;;;;4975078;28;20503;-46
2023/04/26 03:26:13;;;;;;;0.80;0.30;;;0.70;99.90;;;;;;4976246;28;20027;-47
2023/04/26 03:28:40;;;;;;;1.30;0.87;;;0.70;99.90;;;;;;5008302;28;20693;-48
2023/04/26 03:31:07;;;;;;;0.20;0.20;;;0.70;99.90;;;;;;4994008;28;20454;-48
2023/04/26 03:33:33;;;;;;;1.70;0.60;;;0.70;99.90;;;;;;4976032;28;20455;-45
2023/04/26 03:35:59;;;;;;;1.03;0.80;;;0.80;99.90;;;;;;4976751;28;20050;-46
2023/04/26 03:38:25;;;;;;;2.17;0.63;;;0.80;99.90;;;;;;4975878;28;20041;-46
2023/04/26 03:40:51;;;;;;;0.50;0.40;;;0.80;99.90;;;;;;4993041;28;20037;-48
2023/04/26 03:43:17;;;;;;;1.17;0.80;;;0.70;99.90;;;;;;5008932;28;20034;-46
2023/04/26 03:45:47;;;;;;;2.17;1.10;;;0.60;99.90;;;;;;5008620;28;20035;-46
2023/04/26 03:48:13;;;;;;;2.40;1.43;;;0.60;99.90;;;;;;4975731;28;20034;-45
2023/04/26 03:50:39;;;;;;;0.93;0.70;;;0.50;99.90;;;;;;4993005;28;20399;-48
2023/04/26 03:53:04;;;;;;;1.60;1.50;;;0.60;99.90;;;;;;4993436;28;20030;-48
2023/04/26 03:55:30;;;;;;;1.07;0.50;;;0.60;99.90;;;;;;4992180;28;20096;-45
2023/04/26 03:57:56;;;;;;;3.00;1.30;;;0.60;99.90;;;;;;4991872;28;20027;-45
2023/04/26 04:00:22;;;;;;;0.87;0.67;;;0.60;99.90;;;;;;4991493;28;20493;-46
2023/04/26 04:02:48;;;;;;;0.90;0.50;;;0.60;99.90;;;;;;4992140;28;20161;-46
2023/04/26 04:05:22;;;;;;;1.43;1.23;;;0.70;99.90;;;;;;4993013;28;20073;-46
2023/04/26 04:07:48;;;;;;;1.97;1.10;;;0.70;99.90;;;;;;4991855;28;20117;-46
2023/04/26 04:10:15;;;;;;;5.00;1.37;;;0.70;99.90;;;;;;4990708;28;20343;-50
2023/04/26 04:12:42;;;;;;;1.63;1.40;;;0.70;99.90;;;;;;4991945;28;20058;-46
2023/04/26 04:15:09;;;;;;;1.90;0.83;;;0.60;99.90;;;;;;4991251;28;20414;-46
2023/04/26 04:17:37;;;;;;;2.75;1.30;;;0.60;99.90;;;;;;4991326;28;20043;-47
2023/04/26 04:20:05;;;;;;;1.07;0.70;;;0.60;99.90;;;;;;4991069;28;20042;-46
2023/04/26 04:22:31;;;;;;;2.40;1.00;;;0.60;99.90;;;;;;4991617;28;20038;-50
2023/04/26 04:24:57;;;;;;;1.80;0.77;;;0.60;99.90;;;;;;4991480;28;20037;-47
2023/04/26 04:27:22;;;;;;;1.47;1.37;;;0.60;99.90;;;;;;4991368;28;20030;-50
2023/04/26 04:29:48;;;;;;;4.17;0.90;;;0.70;99.90;;;;;;4992030;28;20030;-48
2023/04/26 04:32:14;;;;;;;1.73;0.83;;;0.70;99.90;;;;;;4991316;28;20053;-46
2023/04/26 04:34:43;;;;;;;1.47;0.63;;;0.70;99.90;;;;;;4991032;28;20037;-49
2023/04/26 04:37:08;;;;;;;1.40;1.30;;;0.70;99.90;;;;;;4991348;28;20054;-46
2023/04/26 04:39:35;;;;;;;0.47;0.47;;;0.60;99.90;;;;;;4989851;28;20030;-47
2023/04/26 04:42:01;;;;;;;1.73;1.07;;;0.60;99.90;;;;;;4991188;28;20034;-49
2023/04/26 04:44:27;;;;;;;1.47;0.80;;;0.60;99.90;;;;;;4990713;28;20026;-50
2023/04/26 04:46:55;;;;;;;1.03;0.63;;;0.60;99.90;;;;;;4991215;28;20037;-46
2023/04/26 04:49:23;;;;;;;1.90;0.80;;;0.60;99.90;;;;;;4990973;28;20034;-45
2023/04/26 04:51:50;;;;;;;0.97;0.47;;;0.70;99.90;;;;;;4991291;28;20118;-46
2023/04/26 04:54:17;;;;;;;1.33;1.13;;;0.80;99.90;;;;;;4989662;28;20037;-46
2023/04/26 04:56:45;;;;;;;1.80;0.77;;;0.90;99.90;;;;;;4990965;28;20053;-45
2023/04/26 04:59:13;;;;;;;0.70;0.60;;;0.90;99.90;;;;;;4974910;28;20034;-46
2023/04/26 05:01:39;;;;;;;3.43;1.40;;;1.00;99.90;;;;;;4991275;28;20422;-45
2023/04/26 05:04:10;;;;;;;2.43;0.67;;;1.00;99.90;;;;;;4990727;28;20164;-47
2023/04/26 05:06:36;;;;;;;1.50;0.60;;;1.00;99.90;;;;;;4990695;28;20052;-48
2023/04/26 05:09:04;;;;;;;1.73;1.60;;;1.10;99.90;;;;;;4989825;28;20030;-45
2023/04/26 05:11:31;;;;;;;1.97;0.50;;;1.20;99.90;;;;;;4990830;28;20061;-45
2023/04/26 05:13:57;;;;;;;1.27;0.57;;;1.30;99.90;;;;;;4990352;28;20034;-45
2023/04/26 05:16:23;;;;;;;1.90;1.23;;;1.40;99.90;;;;;;4991922;28;20124;-45
2023/04/26 05:18:49;;;;;;;2.10;0.77;;;1.50;99.90;;;;;;4990390;28;20591;-47
2023/04/26 05:21:15;;;;;;;1.27;0.93;;;1.60;99.90;;;;;;4991811;28;20105;-48
2023/04/26 05:23:42;;;;;;;0.83;0.60;;;1.60;99.90;;;;;;4989123;28;20407;-46
2023/04/26 05:26:14;;;;;;;3.20;1.57;;;1.80;99.90;;;;;;4990401;28;20022;-48
2023/04/26 05:28:49;;;;;;;9.03;2.70;;;1.90;99.90;;;;;;4991654;28;20073;-47
2023/04/26 05:31:41;;;;;;;0.63;0.40;;;2.10;99.90;;;;;;4985051;28;20038;-46
2023/04/26 05:34:13;;;;;;;2.47;0.80;;;2.20;99.90;;;;;;4989762;28;20370;-46
2023/04/26 05:36:39;;;;;;;2.63;1.27;;;2.30;99.90;;;;;;4989985;28;20022;-47
2023/04/26 05:39:06;;;;;;;3.57;1.93;;;2.30;99.90;;;;;;4988758;28;20511;-46
2023/04/26 05:41:32;;;;;;;2.57;1.37;;;2.50;99.90;;;;;;4990659;28;20067;-47
2023/04/26 05:43:58;;;;;;;2.17;1.23;;;2.70;99.90;;;;;;4990964;28;20018;-46
2023/04/26 05:46:24;;;;;;;2.77;1.20;;;3.00;99.90;;;;;;4989663;28;20030;-47
2023/04/26 05:48:50;;;;;;;3.57;1.93;;;3.10;99.90;;;;;;4990866;28;20410;-51
2023/04/26 05:51:16;;;;;;;1.73;0.97;;;3.30;99.90;;;;;;4991104;28;20607;-48
2023/04/26 05:53:42;;;;;;;2.27;1.40;;;3.40;99.90;;;;;;4988373;28;20125;-47
2023/04/26 05:56:08;;;;;;;2.10;1.40;;;3.40;99.90;;;;;;4989836;28;20034;-49
2023/04/26 05:58:34;;;;;;;2.93;1.20;;;3.50;99.90;;;;;;4988927;28;20104;-47
2023/04/26 06:01:01;;;;;;;4.67;2.17;;;3.60;99.90;;;;;;4989362;28;20046;-49
2023/04/26 06:03:27;;;;;;;2.20;1.63;;;3.90;99.90;;;;;;4990645;28;20027;-46
2023/04/26 06:05:53;;;;;;;4.63;2.63;;;4.10;99.90;;;;;;4989201;28;20133;-46
2023/04/26 06:08:20;;;;;;;5.83;1.80;;;4.30;99.90;;;;;;4988853;28;20487;-46
2023/04/26 06:10:48;;;;;;;2.43;1.33;;;4.60;99.90;;;;;;4988767;28;20048;-46
2023/04/26 06:13:14;;;;;;;3.83;1.93;;;4.90;99.90;;;;;;4989135;28;20039;-47
2023/04/26 06:15:41;;;;;;;3.53;1.93;;;5.40;99.90;;;;;;4989024;28;20037;-47
2023/04/26 06:18:07;;;;;;;3.73;2.07;;;6.00;99.90;;;;;;4990726;28;20030;-48
2023/04/26 06:20:33;;;;;;;3.00;1.47;;;6.10;99.90;;;;;;4990468;28;20042;-47
2023/04/26 06:22:59;;;;;;;5.57;2.67;;;6.40;99.90;;;;;;4990796;28;20101;-48
2023/04/26 06:25:24;;;;;;;4.07;2.10;;;6.60;99.90;;;;;;4987920;28;20026;-49
2023/04/26 06:27:50;;;;;;;2.87;1.70;;;6.60;99.90;;;;;;4988851;28;20030;-53
2023/04/26 06:30:16;;;;;;;7.13;2.03;;;6.60;99.90;;;;;;4989891;28;20057;-50
2023/04/26 06:32:45;;;;;;;7.57;2.22;;;6.60;99.90;;;;;;4989331;28;20399;-52
2023/04/26 06:35:11;;;;;;;3.63;1.93;;;6.80;99.90;;;;;;4988784;28;20035;-46
2023/04/26 06:37:38;;;;;;;4.93;2.37;;;6.80;99.90;;;;;;4989067;28;20045;-46
2023/04/26 06:40:06;;;;;;;5.13;2.07;;;7.00;99.90;;;;;;4987810;28;20137;-46
2023/04/26 06:42:33;;;;;;;3.73;1.60;;;7.10;99.90;;;;;;4988282;28;20038;-50
2023/04/26 06:45:25;;;;;;;5.43;2.23;;;7.10;99.90;;;;;;4972319;28;20101;-46
2023/04/26 06:47:52;;;;;;;3.70;1.93;;;7.20;99.90;;;;;;4986717;28;20645;-49
2023/04/26 06:50:17;;;;;;;3.70;1.93;;;7.30;99.90;;;;;;4971789;28;20040;-46
2023/04/26 06:52:43;;;;;;;4.90;2.33;;;7.30;99.90;;;;;;4989553;28;20101;-45
2023/04/26 06:55:09;;;;;;;3.40;1.63;;;7.40;99.90;;;;;;4986194;28;20049;-45
2023/04/26 06:57:35;;;;;;;9.43;1.60;;;7.40;99.90;;;;;;4989926;28;20125;-47
2023/04/26 07:00:03;;;;;;;3.17;1.43;;;7.40;99.90;;;;;;4989590;28;20038;-46
2023/04/26 07:02:28;;;;;;;5.63;1.67;;;7.40;99.90;;;;;;4989937;28;20038;-48
2023/04/26 07:04:54;;;;;;;4.63;1.67;;;7.50;99.90;;;;;;4989546;28;20034;-52
2023/04/26 07:07:20;;;;;;;4.13;1.80;;;7.70;99.90;;;;;;4989457;28;20080;-50
2023/04/26 07:09:46;;;;;;;5.87;1.90;;;7.50;99.90;;;;;;4988450;28;20446;-47
2023/04/26 07:12:12;;;;;;;3.00;1.57;;;7.70;99.90;;;;;;4989813;28;20058;-46
2023/04/26 07:14:40;;;;;;;3.77;1.83;;;7.80;99.90;;;;;;4989201;28;20048;-49
2023/04/26 07:17:09;;;;;;;6.20;1.93;;;8.10;99.90;;;;;;4989709;28;20527;-43
2023/04/26 07:19:35;;;;;;;3.03;1.52;;;8.50;99.90;;;;;;4988975;28;20471;-44
2023/04/26 07:22:01;;;;;;;3.53;1.63;;;8.70;99.90;;;;;;4989260;28;20044;-44
2023/04/26 07:24:26;;;;;;;5.57;1.60;;;8.70;99.90;;;;;;4987931;28;20026;-43
2023/04/26 07:26:52;;;;;;;3.63;1.73;;;9.00;99.90;;;;;;4988844;28;20041;-43
2023/04/26 07:29:18;;;;;;;3.43;1.57;;;9.20;99.90;;;;;;4988151;28;20037;-47
2023/04/26 07:31:44;;;;;;;3.00;1.50;;;9.30;99.90;;;;;;4988746;28;20061;-48
2023/04/26 07:34:10;;;;;;;2.97;1.00;;;9.40;99.90;;;;;;4988448;28;20129;-47
2023/04/26 07:36:36;;;;;;;3.07;1.27;;;9.50;99.90;;;;;;4989305;28;20165;-49
2023/04/26 07:39:03;;;;;;;3.80;1.23;;;9.50;99.90;;;;;;4988367;28;20523;-46
2023/04/26 07:41:30;;;;;;;2.87;1.17;;;9.40;99.90;;;;;;5016663;23;20037;-50
2023/04/26 07:43:55;;;;;;;3.23;1.27;;;9.10;99.90;;;;;;5027720;28;20427;-49
2023/04/26 07:46:21;;;;;;;2.67;1.57;;;9.20;99.90;;;;;;5028363;28;20182;-51
2023/04/26 07:48:47;;;;;;;1.90;0.80;;;9.00;99.90;;;;;;5027966;28;20032;-55
2023/04/26 07:51:13;;;;;;;3.50;1.27;;;9.20;99.90;;;;;;5028448;28;20111;-53
2023/04/26 07:53:39;;;;;;;1.87;0.60;;;9.20;99.90;;;;;;5026834;28;20036;-64
2023/04/26 07:56:06;;;;;;;6.33;0.80;;;9.10;99.90;;;;;;5028603;28;20167;-51
2023/04/26 07:58:33;;;;;;;2.90;1.10;;;9.20;99.90;;;;;;5027806;28;20105;-50
2023/04/26 08:00:59;;;;;;;1.63;0.90;;;9.30;99.90;;;;;;5028343;28;20041;-52
2023/04/26 08:03:28;;;;;;;4.27;1.20;;;9.50;99.90;;;;;;5028217;28;20040;-48
2023/04/26 08:05:54;;;;;;;1.53;0.70;;;9.40;99.90;;;;;;5030309;28;20025;-51
2023/04/26 08:08:21;;;;;;;4.57;1.37;;;9.40;99.90;;;;;;5031273;28;20562;-53
2023/04/26 08:10:47;;;;;;;1.23;0.70;;;9.40;99.90;;;;;;5031309;28;20033;-49
2023/04/26 08:13:13;;;;;;;0.70;0.40;;;9.50;99.90;;;;;;5031913;28;20073;-51
2023/04/26 08:15:39;;;;;;;2.43;0.60;;;9.60;99.90;;;;;;5031674;28;20099;-51
2023/04/26 08:18:05;;;;;;;0.83;0.50;;;9.60;99.90;;;;;;5031858;28;20038;-52
2023/04/26 08:20:34;;;;;;;1.97;0.90;;;9.70;99.90;;;;;;5031681;28;20033;-56
2023/04/26 08:22:59;;;;;;;0.95;0.60;;;9.70;99.90;;;;;;5032210;28;20036;-48
2023/04/26 08:25:25;;;;;;;3.87;0.73;;;9.80;99.90;;;;;;5030617;28;20034;-53
2023/04/26 08:27:51;;;;;;;0.90;0.30;;;9.70;99.90;;;;;;5031817;28;20036;-49
2023/04/26 08:30:18;;;;;;;1.43;0.73;;;9.50;99.90;;;;;;5031578;28;20038;-48
2023/04/26 08:32:45;;;;;;;1.50;0.67;;;9.30;99.90;;;;;;5031855;28;20394;-50
2023/04/26 08:35:10;;;;;;;1.17;0.63;;;9.20;99.90;;;;;;5031145;28;20057;-53
2023/04/26 08:37:36;;;;;;;2.77;0.70;;;9.00;99.90;;;;;;5031608;28;20064;-48
2023/04/26 08:40:09;;;;;;;1.70;0.83;;;9.00;99.90;;;;;;5030305;28;20124;-50
2023/04/26 08:42:41;;;;;;;1.60;0.83;;;9.00;99.90;;;;;;5028588;28;20056;-50
2023/04/26 08:45:07;;;;;;;1.73;0.60;;;9.00;99.90;;;;;;5026503;28;20036;-50
2023/04/26 08:47:39;;;;;;;1.10;0.87;;;9.20;99.90;;;;;;5027482;28;20035;-49
2023/04/26 08:50:05;;;;;;;2.90;0.60;;;9.40;99.90;;;;;;5028357;28;20457;-52
2023/04/26 08:52:32;;;;;;;1.77;0.50;;;9.60;99.90;;;;;;5031568;28;20136;-49
2023/04/26 08:54:59;;;;;;;0.90;0.37;;;9.70;99.60;;;;;;5026970;28;20032;-51
2023/04/26 08:57:26;;;;;;;0.90;0.40;;;9.70;99.90;;;;;;5027488;28;20053;-47
2023/04/26 08:59:52;;;;;;;0.90;0.50;;;9.50;97.80;;;;;;5027853;28;20037;-50
2023/04/26 09:02:20;;;;;;;0.57;0.30;;;9.70;99.30;;;;;;5027530;28;20477;-47
2023/04/26 09:04:46;;;;;;;0.80;0.53;;;9.60;99.60;;;;;;5026576;28;20052;-49
2023/04/26 09:07:19;;;;;;;1.03;0.57;;;9.70;98.70;;;;;;5027765;28;20397;-49
2023/04/26 09:09:48;;;;;;;1.07;0.53;;;9.70;98.20;;;;;;5026290;28;20039;-49
2023/04/26 09:12:15;;;;;;;2.08;0.35;;;9.40;97.90;;;;;;5027156;28;20029;-48
2023/04/26 09:14:41;;;;;;;0.97;0.40;;;9.40;98.60;;;;;;5026365;28;20389;-48
2023/04/26 09:17:27;;;;;;;0.60;0.20;;;9.40;97.90;;;;;;5026579;28;20025;-48
2023/04/26 09:19:53;;;;;;;0.47;0.30;;;9.40;97.80;;;;;;5026426;28;20037;-48
2023/04/26 09:22:34;;;;;;;0.37;0.37;;;9.40;98.50;;;;;;5030095;28;20334;-49
2023/04/26 09:25:04;;;;;;;0.80;0.60;;;9.30;97.00;;;;;;5029383;28;20030;-47
2023/04/26 09:27:44;;;;;;;0.90;0.30;;;9.30;97.70;;;;;;5030657;28;20026;-47
2023/04/26 09:30:16;;;;;;;0.87;0.43;;;9.20;98.20;;;;;;5030683;28;20029;-48
2023/04/26 09:32:55;;;;;;;0.40;0.40;;;9.10;98.40;;;;;;5013204;28;20037;-47
2023/04/26 09:35:30;;;;;;;1.13;0.57;;;9.20;99.30;;;;;;5030258;28;20033;-49
2023/04/26 09:38:00;;;;;;;1.70;0.50;;;9.20;97.80;;;;;;5030765;28;20045;-47
2023/04/26 09:40:34;;;;;;;2.83;0.57;;;9.20;99.00;;;;;;5029276;28;20320;-48
2023/04/26 09:43:10;;;;;;;2.50;0.90;;;9.20;99.00;;;;;;5025630;28;20505;-49
2023/04/26 09:45:42;;;;;;;2.80;1.10;;;9.30;98.50;;;;;;5026670;28;20038;-63
2023/04/26 09:48:24;;;;;;;1.27;0.60;;;9.20;98.50;;;;;;5024632;28;20486;-48
2023/04/26 09:50:52;;;;;;;1.00;0.50;;;9.20;99.50;;;;;;5024713;28;20033;-53
2023/04/26 09:53:30;;;;;;;4.30;1.23;;;9.10;99.50;;;;;;5027481;28;20449;-51
2023/04/26 09:56:06;;;;;;;1.00;0.50;;;9.40;99.90;;;;;;5027785;28;20128;-46
2023/04/26 09:58:31;;;;;;;1.10;0.67;;;10.20;98.70;;;;;;5028619;28;20025;-47
2023/04/26 10:00:58;;;;;;;1.20;0.60;;;10.90;96.80;;;;;;5030489;28;20381;-49
2023/04/26 10:03:24;;;;;;;1.20;0.70;;;11.20;95.10;;;;;;5011886;28;20463;-47
2023/04/26 10:05:50;;;;;;;1.20;0.65;;;11.30;96.30;;;;;;5030044;28;20480;-47
2023/04/26 10:08:15;;;;;;;1.17;0.82;;;11.70;94.70;;;;;;5029620;28;20091;-48
2023/04/26 10:10:42;;;;;;;1.50;0.50;;;12.00;92.20;;;;;;5028915;28;20068;-49
2023/04/26 10:13:09;;;;;;;1.17;0.68;;;12.00;91.00;;;;;;5029546;28;20036;-51
2023/04/26 10:15:36;;;;;;;3.33;0.55;;;12.10;90.70;;;;;;5029366;28;20202;-48
2023/04/26 10:18:02;;;;;;;2.13;0.70;;;12.10;90.80;;;;;;5029383;28;20029;-50
2023/04/26 10:20:29;;;;;;;2.38;0.70;;;11.80;92.20;;;;;;5029217;28;20547;-49
2023/04/26 10:23:02;;;;;;;1.02;0.60;;;11.40;92.30;;;;;;5029695;28;20040;-47
2023/04/26 10:25:38;;;;;;;4.03;1.05;;;11.90;92.60;;;;;;5028032;28;20093;-49
2023/04/26 10:28:04;;;;;;;0.88;0.40;;;12.20;90.30;;;;;;5029361;28;20033;-51
2023/04/26 10:30:31;;;;;;;0.90;0.60;;;12.50;91.10;;;;;;5029018;28;20032;-49
2023/04/26 10:32:56;;;;;;;1.58;0.63;;;12.60;92.10;;;;;;5029373;28;20100;-52
2023/04/26 10:35:24;;;;;;;2.10;1.05;;;12.60;90.60;;;;;;5029050;28;20487;-50
2023/04/26 10:38:05;;;;;;;1.05;0.65;;;13.00;90.70;;;;;;5027764;28;20394;-53
2023/04/26 10:40:32;;;;;;;2.72;1.08;;;12.60;86.70;;;;;;5027927;28;20034;-53
2023/04/26 10:43:10;;;;;;;1.13;0.75;;;12.10;89.40;;;;;;5029364;28;20064;-51
2023/04/26 10:45:37;;;;;;;1.55;0.68;;;11.50;89.10;;;;;;5029133;28;20509;-50
2023/04/26 10:48:31;;;;;;;1.33;0.63;;;11.20;90.80;;;;;;5029412;28;20033;-49
2023/04/26 10:51:00;;;;;;;2.08;1.08;;;11.20;91.80;;;;;;5029426;28;20117;-53
2023/04/26 10:53:47;;;;;;;1.35;0.70;;;11.00;91.50;;;;;;5028654;28;20041;-48
2023/04/26 10:56:22;;;;;;;0.87;0.70;;;10.80;92.70;;;;;;5029498;28;20079;-51
2023/04/26 10:58:49;;;;;;;0.70;0.50;;;10.50;91.50;;;;;;5028837;28;20131;-49
2023/04/26 11:01:17;;;;;;;2.13;1.27;;;10.30;91.40;;;;;;5029309;28;20056;-50
2023/04/26 11:04:05;;;;;;;1.23;0.82;;;10.90;93.10;;;;;;5028769;28;20025;-48
2023/04/26 11:06:50;;;;;;;1.00;0.82;;;12.10;93.00;;;;;;5029122;28;20025;-52
2023/04/26 11:09:36;;;;;;;1.73;0.98;;;12.70;90.30;;;;;;5027573;28;20132;-52
2023/04/26 11:12:09;;;;;;;2.78;0.60;;;13.20;87.10;;;;;;5029315;28;20103;-47
2023/04/26 11:14:35;;;;;;;1.90;0.55;;;12.40;90.40;;;;;;5028672;28;20021;-49
2023/04/26 11:17:11;;;;;;;2.38;0.60;;;12.30;90.30;;;;;;5028709;28;20021;-51
2023/04/26 11:19:37;;;;;;;0.82;0.55;;;12.30;90.00;;;;;;5028627;28;20034;-50
2023/04/26 11:22:06;;;;;;;1.35;0.93;;;12.20;89.80;;;;;;5028943;28;20033;-47
2023/04/26 11:24:37;;;;;;;2.90;0.98;;;12.10;91.20;;;;;;5027355;28;20478;-48
2023/04/26 11:27:10;;;;;;;1.65;1.02;;;12.00;90.80;;;;;;5028794;28;20032;-50
2023/04/26 11:29:37;;;;;;;1.88;0.63;;;11.90;91.60;;;;;;5028442;28;20454;-51
2023/04/26 11:32:03;;;;;;;2.40;1.20;;;12.10;91.30;;;;;;5028917;28;20056;-50
2023/04/26 11:34:34;;;;;;;1.10;0.80;;;12.10;88.70;;;;;;5028084;28;20033;-50
2023/04/26 11:37:01;;;;;;;1.40;0.80;;;12.00;90.90;;;;;;5028473;28;20170;-51
2023/04/26 11:39:27;;;;;;;1.35;0.73;;;11.60;89.10;;;;;;5027203;28;20095;-51
2023/04/26 11:42:06;;;;;;;1.23;1.00;;;11.30;90.00;;;;;;5032316;28;20029;-51
2023/04/26 11:44:32;;;;;;;1.90;0.93;;;11.00;90.70;;;;;;5032061;28;20033;-48
2023/04/26 11:47:00;;;;;;;2.13;1.05;;;10.80;90.20;;;;;;5031952;28;20386;-47
2023/04/26 11:49:26;;;;;;;1.08;0.50;;;11.10;91.80;;;;;;5031793;28;20103;-53
2023/04/26 11:51:53;;;;;;;2.13;0.70;;;11.50;90.70;;;;;;5032678;28;20109;-50
2023/04/26 11:54:30;;;;;;;0.65;0.50;;;11.80;90.00;;;;;;5030745;28;20041;-49
2023/04/26 11:56:57;;;;;;;0.80;0.70;;;12.10;88.80;;;;;;5032386;28;20079;-47
2023/04/26 11:59:30;;;;;;;1.38;0.77;;;11.70;89.10;;;;;;5031768;28;20029;-51
2023/04/26 12:01:57;;;;;;;3.60;1.20;;;11.30;90.60;;;;;;5032095;28;20036;-52
2023/04/26 12:04:29;;;;;;;1.35;1.00;;;11.20;91.30;;;;;;5031934;28;20422;-49
2023/04/26 12:06:56;;;;;;;1.17;0.55;;;11.30;91.90;;;;;;5031956;28;20072;-53
2023/04/26 12:09:31;;;;;;;1.15;0.65;;;11.50;91.30;;;;;;5030989;28;20052;-49
2023/04/26 12:12:01;;;;;;;3.38;0.80;;;11.40;90.00;;;;;;5031799;28;20095;-54
2023/04/26 12:14:38;;;;;;;1.20;0.88;;;11.10;91.30;;;;;;5031425;28;20120;-50
2023/04/26 12:17:05;;;;;;;1.13;0.80;;;11.10;91.10;;;;;;5032189;28;20437;-50
2023/04/26 12:19:39;;;;;;;1.20;0.82;;;10.90;91.30;;;;;;5031543;28;20053;-49
2023/04/26 12:22:07;;;;;;;1.63;0.90;;;11.00;90.40;;;;;;5032364;28;20312;-48
2023/04/26 12:24:35;;;;;;;1.43;0.70;;;11.00;90.10;;;;;;5030381;28;20112;-52
2023/04/26 12:27:01;;;;;;;1.47;0.70;;;11.00;89.00;;;;;;5031718;28;20048;-52
2023/04/26 12:29:29;;;;;;;1.03;0.70;;;10.80;91.10;;;;;;5030213;28;20371;-47
2023/04/26 12:31:55;;;;;;;1.30;0.70;;;10.80;90.60;;;;;;5031775;28;20072;-50
2023/04/26 12:34:21;;;;;;;0.90;0.43;;;10.80;91.70;;;;;;5030941;28;20397;-51
2023/04/26 12:36:47;;;;;;;0.80;0.70;;;11.00;91.50;;;;;;5031320;28;20036;-49
2023/04/26 12:39:14;;;;;;;1.17;0.83;;;11.20;91.00;;;;;;5030246;28;20018;-53
2023/04/26 12:41:45;;;;;;;2.37;0.97;;;11.00;92.20;;;;;;5031494;28;20060;-48
2023/04/26 12:44:11;;;;;;;0.90;0.60;;;10.90;91.30;;;;;;5031013;28;20026;-52
2023/04/26 12:46:37;;;;;;;1.50;0.77;;;11.00;90.00;;;;;;5031395;28;20059;-52
2023/04/26 12:49:03;;;;;;;1.63;0.70;;;11.30;89.80;;;;;;5031020;28;20053;-48
2023/04/26 12:51:30;;;;;;;0.80;0.70;;;11.50;88.40;;;;;;5029971;28;20088;-50
2023/04/26 12:53:56;;;;;;;1.63;0.70;;;11.80;89.10;;;;;;5029736;28;20115;-53
2023/04/26 12:56:23;;;;;;;1.20;0.60;;;12.00;86.70;;;;;;5031361;28;20041;-50
2023/04/26 12:58:48;;;;;;;0.93;0.60;;;12.10;84.60;;;;;;5030891;28;20033;-51